Tuesday, January 22, 2019, 4:37 PM EST
Back to Local

KDYL, Doylestown Airport

Location: Doylestown, PA, United States Lat: 40.333
Local Time: 4:37 PM EST (21:37 GMT) Lon: -75.117
Time Zone: US/Eastern Elev: 393 ft

Show me the last for .
Show Decoded

2019-01-22 15:54 METAR KDYL 222054Z AUTO 00000KT 10SM CLR M01/M16 A3058 RMK AO2 SLP369 T10111161
                 56016 =
2019-01-22 14:54 METAR KDYL 221954Z AUTO 28003KT 10SM CLR M01/M16 A3060 RMK AO2 SLP373 T10061161
                 =
2019-01-22 13:54 METAR KDYL 221854Z AUTO VRB04KT 10SM CLR M02/M16 A3061 RMK AO2 SLP376 T10171161
                 =
2019-01-22 12:54 METAR KDYL 221754Z AUTO VRB05KT 10SM CLR M02/M16 A3063 RMK AO2 SLP385 T10221161
                 11022 21122 58009 =
2019-01-22 11:54 METAR KDYL 221654Z AUTO VRB04KT 10SM CLR M04/M17 A3066 RMK AO2 SLP395 T10441167
                 =
2019-01-22 10:54 METAR KDYL 221554Z AUTO 28006KT 10SM CLR M06/M16 A3068 RMK AO2 SLP402 T10561161
                 =
2019-01-22 09:54 METAR KDYL 221454Z AUTO 33007KT 10SM CLR M07/M17 A3066 RMK AO2 SLP396 T10721167
                 50020 =
2019-01-22 08:54 METAR KDYL 221354Z AUTO 30007KT 10SM CLR M09/M17 A3066 RMK AO2 SLP398 T10941167
                 =
2019-01-22 07:54 METAR KDYL 221254Z AUTO 32005KT 10SM CLR M12/M17 A3063 RMK AO2 SLP388 T11171172
                 =
2019-01-22 06:54 METAR KDYL 221154Z AUTO 32004KT 10SM CLR M12/M18 A3060 RMK AO2 SLP378 T11221178
                 11117 21122 51021 =
2019-01-22 05:54 METAR KDYL 221054Z AUTO 30004KT 10SM CLR M12/M18 A3059 RMK AO2 SLP372 T11171178
                 =
2019-01-22 04:54 METAR KDYL 220954Z AUTO 30011G18KT 10SM CLR M12/M18 A3058 RMK AO2 SLP370
                 T11171178 =
2019-01-22 03:54 METAR KDYL 220854Z AUTO 30007KT 10SM CLR M12/M18 A3054 RMK AO2 SLP355 T11171183
                 51030 =
2019-01-22 02:54 METAR KDYL 220754Z AUTO 26004KT 10SM CLR M12/M18 A3051 RMK AO2 SLP346 T11171183
                 =
2019-01-22 01:54 METAR KDYL 220654Z AUTO 30008KT 10SM CLR M12/M19 A3048 RMK AO2 SLP335 T11171189
                 =
2019-01-22 00:54 METAR KDYL 220554Z AUTO 31006G14KT 10SM CLR M12/M19 A3045 RMK AO2 SLP326
                 T11171194 11106 21117 50014 =
2019-01-21 23:54 METAR KDYL 220454Z AUTO 31014G20KT 10SM CLR M12/M20 A3046 RMK AO2 SLP328
                 T11171200 410831150 =
2019-01-21 22:54 METAR KDYL 220354Z AUTO 30009G22KT 10SM CLR M12/M21 A3044 RMK AO2 SLP323
                 T11171206 =
2019-01-21 21:54 METAR KDYL 220254Z AUTO 30013G18KT 10SM CLR M11/M21 A3041 RMK AO2 PK WND
                 30027/0225 SLP312 T11111211 51029 =
2019-01-21 20:54 METAR KDYL 220154Z AUTO 31013G26KT 10SM CLR M11/M22 A3039 RMK AO2 PK WND
                 32029/0134 SLP305 T11111222 =
2019-01-21 19:54 METAR KDYL 220054Z AUTO 32012KT 10SM CLR M11/M23 A3035 RMK AO2 SLP294 T11061228
                 =
2019-01-21 18:54 METAR KDYL 212354Z AUTO 33009G19KT 290V360 10SM CLR M11/M24 A3032 RMK AO2 PK WND
                 30026/2329 SLP282 T11061239 11083 21106 53042 =
2019-01-21 17:54 METAR KDYL 212254Z AUTO 31011G25KT 10SM CLR M10/M23 A3027 RMK AO2 PK WND
                 29026/2159 SLP266 T11001233 =
2019-01-21 16:54 METAR KDYL 212154Z AUTO 32014G24KT 10SM CLR M09/M24 A3023 RMK AO2 PK WND
                 28032/2134 SLP253 T10941239 =

Support USWX by starting your Amazon purchase here.